Airfield :







YOU CAN JOIN US ON...

 
LOGIN :

Register | Disclaimer

   EN    FR    IT 

 









Legend :    VFR   Marginal VFR   IFR   Intensive IFR   Very Intensive IFR
Visi :
Ceiling :
>= 8 km
>= 3000ft
5 to 8 km
1000 to 3000 ft
1500m to 5 km
500 to 1000 ft
800 to 1500m
200 to 500 ft
< 800m
< 200 ft
Symbols :   Thunderstorms  Fog  Heavy snow  Heavy precipitations  Wind > 20 kt







- Airport Elevation : 342 ft


KCON - Concord Municipal

CURRENT METAR :
  • 251051Z AUTO 34010KT 10SM FEW043 BKN060 00/M09 A3004 RMK AO2 SLP175 T00001094

EXPIRED METARs :
  • 250951Z AUTO 33010G14KT 10SM OVC035 01/M05 A3001 RMK AO2 SLP165 T00111050
  • 250851Z AUTO 34011KT 10SM OVC045 03/M03 A2997 RMK AO2 SLP152 T00281028 53015

TAF KCON
Valid from the 25 at 06:00 until the 26 at 06:00 UTC


250520Z 2506/2606 30008KT P6SM SCT250
FM251500 30012KT P6SM SKC
KZBW FIR / North America



MET'MAP, your aeronautical weather chart ! - Copyright ORBIFLY December 2007 - Disclaimer

ORBIFLY MET'MAP TEAM :

Programming & Development : Alexandra Zaïnal
Concept & Development : Baudouin d'Aumeries
Co-Development & Prog : Marc-Olivier Méhu
Technical & hardware support : Manuel Goepfert

Contact : metmap@orbifly.com




SOURCES & CREDITS :

   NOAA